createdAt,value
2018-07-19T00:01:41.165Z,53.64
2018-07-19T00:04:08.875Z,53.37
2018-07-19T00:06:36.586Z,52.57
2018-07-19T00:09:06.545Z,53.73
2018-07-19T00:11:34.266Z,53.42
2018-07-19T00:14:01.986Z,54.71
2018-07-19T00:16:29.698Z,55.39
2018-07-19T00:18:57.404Z,54.79
2018-07-19T00:21:25.090Z,54.58
2018-07-19T00:23:52.777Z,53.67
2018-07-19T00:26:20.439Z,55.03
2018-07-19T00:28:48.134Z,55.60
2018-07-19T00:31:15.816Z,55.70
2018-07-19T00:33:43.521Z,55.09
2018-07-19T00:36:11.185Z,55.35
2018-07-19T00:38:38.884Z,54.27
2018-07-19T00:41:06.619Z,54.05
2018-07-19T00:43:34.295Z,54.12
2018-07-19T00:46:01.996Z,54.07
2018-07-19T00:48:29.721Z,54.23
2018-07-19T00:50:57.417Z,54.22
2018-07-19T00:53:25.106Z,54.17
2018-07-19T00:55:52.776Z,54.63
2018-07-19T00:58:20.477Z,54.62
2018-07-19T01:00:48.200Z,54.31
2018-07-19T01:03:15.877Z,53.92
2018-07-19T01:05:43.694Z,55.05
2018-07-19T01:08:11.400Z,56.32
2018-07-19T01:10:39.102Z,56.08
2018-07-19T01:13:07.153Z,55.54
2018-07-19T01:15:34.858Z,55.08
2018-07-19T01:18:03.441Z,54.88
2018-07-19T01:20:31.132Z,54.64
2018-07-19T01:22:58.849Z,54.93
2018-07-19T01:25:26.545Z,54.58
2018-07-19T01:27:54.393Z,54.74
2018-07-19T01:30:22.140Z,54.92
2018-07-19T01:32:49.825Z,55.14
2018-07-19T01:35:17.520Z,54.75
2018-07-19T01:37:45.250Z,54.90
2018-07-19T01:40:12.922Z,56.38
2018-07-19T01:42:41.736Z,56.43
2018-07-19T01:45:10.129Z,56.99
2018-07-19T01:47:37.882Z,57.22
2018-07-19T01:50:06.718Z,57.83
2018-07-19T01:52:34.489Z,57.89
2018-07-19T01:55:02.203Z,58.38
2018-07-19T01:57:29.908Z,58.65
2018-07-19T01:59:57.654Z,58.83
2018-07-19T02:02:25.258Z,59.55
2018-07-19T02:04:52.973Z,59.55
2018-07-19T02:07:20.834Z,59.33
2018-07-19T02:09:48.562Z,59.80
2018-07-19T02:12:16.211Z,59.91
2018-07-19T02:14:43.896Z,60.78
2018-07-19T02:17:11.594Z,61.13
2018-07-19T02:19:39.273Z,60.56
2018-07-19T02:22:06.973Z,59.41
2018-07-19T02:24:34.670Z,59.83
2018-07-19T02:27:02.345Z,60.31
2018-07-19T02:29:30.201Z,60.96
2018-07-19T02:31:57.975Z,61.11
2018-07-19T02:34:25.673Z,60.61
2018-07-19T02:36:53.393Z,59.72
2018-07-19T02:39:21.093Z,59.46
2018-07-19T02:41:48.830Z,59.28
2018-07-19T02:44:16.701Z,58.71
2018-07-19T02:46:44.672Z,59.11
2018-07-19T02:49:12.810Z,59.76
2018-07-19T02:51:41.380Z,60.16
2018-07-19T02:54:09.377Z,60.01
2018-07-19T02:56:37.047Z,60.61
2018-07-19T02:59:04.862Z,60.55
2018-07-19T03:01:32.547Z,60.70
2018-07-19T03:04:00.315Z,60.63
2018-07-19T03:06:28.012Z,59.91
2018-07-19T03:08:55.782Z,60.08
2018-07-19T03:11:23.831Z,60.03
2018-07-19T03:13:51.513Z,60.27
2018-07-19T03:16:19.273Z,60.25
2018-07-19T03:18:46.962Z,60.40
2018-07-19T03:21:14.658Z,60.63
2018-07-19T03:23:42.490Z,60.32
2018-07-19T03:26:10.411Z,60.25
2018-07-19T03:28:38.074Z,60.20
2018-07-19T03:31:05.922Z,59.82
2018-07-19T03:33:33.547Z,59.80
2018-07-19T03:36:01.222Z,59.28
2018-07-19T03:38:28.921Z,58.82
2018-07-19T03:40:56.667Z,58.76
2018-07-19T03:43:24.380Z,58.96
2018-07-19T03:45:52.111Z,58.50
2018-07-19T03:48:19.815Z,58.21
2018-07-19T03:50:47.513Z,57.88
2018-07-19T03:53:15.218Z,57.71
2018-07-19T03:55:42.921Z,57.08
2018-07-19T03:58:10.637Z,56.67
2018-07-19T04:00:38.336Z,56.76
2018-07-19T04:03:06.018Z,56.75
2018-07-19T04:05:33.700Z,55.62
2018-07-19T04:08:01.385Z,54.93
2018-07-19T04:10:29.075Z,54.20
2018-07-19T04:12:56.782Z,54.02
2018-07-19T04:15:24.454Z,53.47
2018-07-19T04:17:55.917Z,53.81
2018-07-19T04:20:31.507Z,54.32
2018-07-19T04:22:59.270Z,53.54
2018-07-19T04:25:27.315Z,52.43
2018-07-19T04:27:55.838Z,52.49
2018-07-19T04:30:23.494Z,52.12
2018-07-19T04:32:51.172Z,51.56
2018-07-19T04:35:19.426Z,51.56
2018-07-19T04:37:47.148Z,50.97
2018-07-19T04:40:14.941Z,50.62
2018-07-19T04:42:42.751Z,50.15
2018-07-19T04:45:10.467Z,49.76
2018-07-19T04:47:38.181Z,49.85
2018-07-19T04:50:05.901Z,49.60
2018-07-19T04:52:33.638Z,49.18
2018-07-19T04:55:01.322Z,49.33
2018-07-19T04:57:29.021Z,49.11
2018-07-19T04:59:56.730Z,49.37
2018-07-19T05:02:24.429Z,49.52
2018-07-19T05:04:52.113Z,49.63
2018-07-19T05:07:19.811Z,49.99
2018-07-19T05:09:47.898Z,50.21
2018-07-19T05:12:15.632Z,50.03
2018-07-19T05:14:43.478Z,49.53
2018-07-19T05:17:11.203Z,49.24
2018-07-19T05:19:38.917Z,49.76
2018-07-19T05:22:06.644Z,49.38
2018-07-19T05:24:34.322Z,49.35
2018-07-19T05:27:02.044Z,49.38
2018-07-19T05:29:29.719Z,49.39
2018-07-19T05:31:57.416Z,48.88
2018-07-19T05:34:25.178Z,48.90
2018-07-19T05:36:52.844Z,48.71
2018-07-19T05:39:20.629Z,48.71
2018-07-19T05:41:48.321Z,48.37
2018-07-19T05:44:16.041Z,48.31
2018-07-19T05:46:43.713Z,47.90
2018-07-19T05:49:11.444Z,48.01
2018-07-19T05:51:39.316Z,47.62
2018-07-19T05:54:07.045Z,48.04
2018-07-19T05:56:34.849Z,48.10
2018-07-19T05:59:02.600Z,48.13
2018-07-19T06:01:30.281Z,48.16
2018-07-19T06:03:57.978Z,48.37
2018-07-19T06:06:25.681Z,48.07
2018-07-19T06:08:53.368Z,47.61
2018-07-19T06:11:21.084Z,48.35
2018-07-19T06:13:48.784Z,48.39
2018-07-19T06:16:17.058Z,48.46
2018-07-19T06:18:44.795Z,48.40
2018-07-19T06:21:12.560Z,48.47
2018-07-19T06:23:40.294Z,47.64
2018-07-19T06:26:08.029Z,47.70
2018-07-19T06:28:35.726Z,47.64
2018-07-19T06:31:03.458Z,47.60
2018-07-19T06:33:31.123Z,46.83
2018-07-19T06:35:59.028Z,46.71
2018-07-19T06:38:26.822Z,47.49
2018-07-19T06:40:54.593Z,47.28
2018-07-19T06:43:22.310Z,47.25
2018-07-19T06:45:50.071Z,47.21
2018-07-19T06:48:17.801Z,46.40
2018-07-19T06:50:45.519Z,46.73
2018-07-19T06:53:13.227Z,47.15
2018-07-19T06:55:40.956Z,47.51
2018-07-19T06:58:08.665Z,47.44
2018-07-19T07:00:36.362Z,46.90
2018-07-19T07:03:04.089Z,46.67
2018-07-19T07:05:31.796Z,46.38
2018-07-19T07:07:59.493Z,46.79
2018-07-19T07:10:27.179Z,47.23
2018-07-19T07:12:54.898Z,47.94
2018-07-19T07:15:22.620Z,47.52
2018-07-19T07:17:50.313Z,47.21
2018-07-19T07:20:17.974Z,47.82
2018-07-19T07:22:45.697Z,47.88
2018-07-19T07:25:13.377Z,47.34
2018-07-19T07:27:41.130Z,47.81
2018-07-19T07:30:08.901Z,47.38
2018-07-19T07:32:36.606Z,47.39
2018-07-19T07:35:05.230Z,47.58
2018-07-19T07:37:33.805Z,47.88
2018-07-19T07:40:01.528Z,47.70
2018-07-19T07:42:29.219Z,47.35
2018-07-19T07:44:56.914Z,46.88
2018-07-19T07:47:24.615Z,46.69
2018-07-19T07:49:52.310Z,47.47
2018-07-19T07:52:20.038Z,47.04
2018-07-19T07:54:47.745Z,46.15
2018-07-19T07:57:15.428Z,46.79
2018-07-19T07:59:43.278Z,45.83
2018-07-19T08:02:11.026Z,45.87
2018-07-19T08:04:39.085Z,46.04
2018-07-19T08:07:06.801Z,46.17
2018-07-19T08:09:34.501Z,46.25
2018-07-19T08:12:02.340Z,46.73
2018-07-19T08:14:30.129Z,46.57
2018-07-19T08:16:57.833Z,46.17
2018-07-19T08:19:25.639Z,46.30
2018-07-19T08:21:53.376Z,46.17
2018-07-19T08:24:21.088Z,46.45
2018-07-19T08:26:48.777Z,46.47
2018-07-19T08:29:16.443Z,46.00
2018-07-19T08:31:44.165Z,45.96
2018-07-19T08:34:11.870Z,45.54
2018-07-19T08:36:39.566Z,45.61
2018-07-19T08:39:10.438Z,45.66
2018-07-19T08:41:38.113Z,45.18
2018-07-19T08:44:05.835Z,45.16
2018-07-19T08:46:33.519Z,44.48
2018-07-19T08:49:01.388Z,44.87
2018-07-19T08:51:29.571Z,45.12
2018-07-19T08:53:57.277Z,45.27
2018-07-19T08:56:25.018Z,45.16
2018-07-19T08:58:52.670Z,45.43
2018-07-19T09:01:20.385Z,45.25
2018-07-19T09:03:48.055Z,45.41
2018-07-19T09:06:15.754Z,45.74
2018-07-19T09:08:43.470Z,45.88
2018-07-19T09:11:11.168Z,46.18
2018-07-19T09:13:38.865Z,46.34
2018-07-19T09:16:06.778Z,46.51
2018-07-19T09:18:34.451Z,46.65
2018-07-19T09:21:02.154Z,46.90
2018-07-19T09:23:29.841Z,47.12
2018-07-19T09:25:57.505Z,47.39
2018-07-19T09:28:25.179Z,47.11
2018-07-19T09:30:52.898Z,47.52
2018-07-19T09:33:20.894Z,47.58
2018-07-19T09:35:48.579Z,47.24
2018-07-19T09:38:16.376Z,47.21
2018-07-19T09:40:44.045Z,47.31
2018-07-19T09:43:11.707Z,47.84
2018-07-19T09:45:39.410Z,47.61
2018-07-19T09:48:07.082Z,47.55
2018-07-19T09:50:34.792Z,48.29
2018-07-19T09:53:02.477Z,47.69
2018-07-19T09:55:30.167Z,48.70
2018-07-19T09:57:57.840Z,47.98
2018-07-19T10:00:31.087Z,47.72
2018-07-19T10:02:58.780Z,47.79
2018-07-19T10:05:26.493Z,47.97
2018-07-19T10:07:54.274Z,48.23
2018-07-19T10:10:22.000Z,47.54
2018-07-19T10:12:49.767Z,48.37
2018-07-19T10:15:17.513Z,49.36
2018-07-19T10:17:45.230Z,48.40
2018-07-19T10:20:12.969Z,47.86
2018-07-19T10:22:40.682Z,48.09
2018-07-19T10:25:08.714Z,47.25
2018-07-19T10:27:36.436Z,47.17
2018-07-19T10:30:05.579Z,46.90
2018-07-19T10:32:33.316Z,46.89
2018-07-19T10:35:00.985Z,47.82
2018-07-19T10:37:28.704Z,46.86
2018-07-19T10:39:56.449Z,47.13
2018-07-19T10:42:24.143Z,47.04
2018-07-19T10:44:51.886Z,46.82
2018-07-19T10:47:19.605Z,48.10
2018-07-19T10:49:47.267Z,47.89
2018-07-19T10:52:14.953Z,48.58
2018-07-19T10:54:42.832Z,48.19
2018-07-19T10:57:10.544Z,48.09
2018-07-19T10:59:38.224Z,47.60
2018-07-19T11:02:05.974Z,51.94
2018-07-19T11:04:33.717Z,48.32
2018-07-19T11:07:01.391Z,48.33
2018-07-19T11:09:29.095Z,48.30
2018-07-19T11:11:56.778Z,47.93
2018-07-19T11:14:24.502Z,48.33
2018-07-19T11:16:52.198Z,48.46
2018-07-19T11:19:19.897Z,48.41
2018-07-19T11:21:47.621Z,49.59
2018-07-19T11:24:15.371Z,49.15
2018-07-19T11:26:43.087Z,48.31
2018-07-19T11:29:10.829Z,48.44
2018-07-19T11:31:38.544Z,48.14
2018-07-19T11:34:06.334Z,47.77
2018-07-19T11:36:34.024Z,48.55
2018-07-19T11:39:01.708Z,49.86
2018-07-19T11:41:29.467Z,50.87
2018-07-19T11:43:57.316Z,50.23
2018-07-19T11:46:24.990Z,49.73
2018-07-19T11:48:52.651Z,50.07
2018-07-19T11:51:20.343Z,50.32
2018-07-19T11:53:48.037Z,50.01
2018-07-19T11:56:15.734Z,50.35
2018-07-19T11:58:43.576Z,51.59
2018-07-19T12:01:11.322Z,51.39
2018-07-19T12:03:39.041Z,50.69
2018-07-19T12:06:06.782Z,51.24
2018-07-19T12:08:34.490Z,51.26
2018-07-19T12:11:02.182Z,50.39
2018-07-19T12:13:29.889Z,51.43
2018-07-19T12:15:57.598Z,51.49
2018-07-19T12:18:25.294Z,50.46
2018-07-19T12:20:53.013Z,49.13
2018-07-19T12:23:21.144Z,50.10
2018-07-19T12:25:48.866Z,49.38
2018-07-19T12:28:16.537Z,48.96
2018-07-19T12:30:44.240Z,49.00
2018-07-19T12:33:11.950Z,49.18
2018-07-19T12:35:39.764Z,49.83
2018-07-19T12:38:07.484Z,49.74
2018-07-19T12:40:35.189Z,50.58
2018-07-19T12:43:02.857Z,50.19
2018-07-19T12:45:30.581Z,50.03
2018-07-19T12:47:58.251Z,49.35
2018-07-19T12:50:26.129Z,49.64
2018-07-19T12:52:53.812Z,50.27
2018-07-19T12:55:21.471Z,49.61
2018-07-19T12:57:49.223Z,50.51
2018-07-19T13:00:16.954Z,49.72
2018-07-19T13:02:44.610Z,49.94
2018-07-19T13:05:12.318Z,49.25
2018-07-19T13:07:40.001Z,48.98
2018-07-19T13:10:07.717Z,49.77
2018-07-19T13:12:35.577Z,50.61
2018-07-19T13:15:04.759Z,51.24
2018-07-19T13:17:32.421Z,51.23
2018-07-19T13:20:00.529Z,50.80
2018-07-19T13:22:28.206Z,51.67
2018-07-19T13:24:55.922Z,50.23
2018-07-19T13:27:23.650Z,49.64
2018-07-19T13:29:51.405Z,49.77
2018-07-19T13:32:19.078Z,50.50
2018-07-19T13:34:46.856Z,51.21
2018-07-19T13:37:14.562Z,49.80
2018-07-19T13:39:42.224Z,50.00
2018-07-19T13:42:09.950Z,54.14
2018-07-19T13:44:37.664Z,51.96
2018-07-19T13:47:05.348Z,51.30
2018-07-19T13:49:33.076Z,50.62
2018-07-19T13:52:00.773Z,50.80
2018-07-19T13:54:38.596Z,50.76
2018-07-19T13:57:06.308Z,49.89
2018-07-19T13:59:33.965Z,49.63
2018-07-19T14:02:01.899Z,48.79
2018-07-19T14:04:29.565Z,49.03
2018-07-19T14:06:57.242Z,48.63
2018-07-19T14:09:24.979Z,47.73
2018-07-19T14:11:52.658Z,48.16
2018-07-19T14:14:20.762Z,47.47
2018-07-19T14:16:48.428Z,48.38
2018-07-19T14:19:16.142Z,49.37
2018-07-19T14:21:43.803Z,50.55
2018-07-19T14:24:11.626Z,49.74
2018-07-19T14:26:39.318Z,48.71
2018-07-19T14:29:07.001Z,49.20
2018-07-19T14:31:34.736Z,48.19
2018-07-19T14:34:02.438Z,48.66
2018-07-19T14:36:30.172Z,48.68
2018-07-19T14:38:57.883Z,48.95
2018-07-19T14:41:25.632Z,49.58
2018-07-19T14:43:53.373Z,49.71
2018-07-19T14:46:21.533Z,49.11
2018-07-19T14:48:49.249Z,48.87
2018-07-19T14:51:16.981Z,49.01
2018-07-19T14:53:44.682Z,48.85
2018-07-19T14:56:12.397Z,48.49
2018-07-19T14:58:40.105Z,48.61
2018-07-19T15:01:07.881Z,48.99
2018-07-19T15:03:35.777Z,48.26
2018-07-19T15:06:03.523Z,47.98
2018-07-19T15:08:31.244Z,48.31
2018-07-19T15:10:58.958Z,49.04
2018-07-19T15:13:26.661Z,49.29
2018-07-19T15:15:54.364Z,49.90
2018-07-19T15:18:22.066Z,48.50
2018-07-19T15:20:49.801Z,49.83
2018-07-19T15:23:17.545Z,49.97
2018-07-19T15:25:45.281Z,49.96
2018-07-19T15:28:13.090Z,49.85
2018-07-19T15:30:40.808Z,50.45
2018-07-19T15:33:08.514Z,50.75
2018-07-19T15:35:36.210Z,51.11
2018-07-19T15:38:04.080Z,52.11
2018-07-19T15:40:31.771Z,51.79
2018-07-19T15:42:59.461Z,52.52
2018-07-19T15:45:27.246Z,52.60
2018-07-19T15:47:54.973Z,53.09
2018-07-19T15:50:22.711Z,53.35
2018-07-19T15:52:50.392Z,53.69
2018-07-19T15:55:18.078Z,54.09
2018-07-19T15:57:45.796Z,54.46
2018-07-19T16:00:13.554Z,53.72
2018-07-19T16:02:41.321Z,54.57
2018-07-19T16:05:09.156Z,55.09
2018-07-19T16:07:36.887Z,54.46
2018-07-19T16:10:04.675Z,54.54
2018-07-19T16:12:32.396Z,54.67
2018-07-19T16:15:00.091Z,54.76
2018-07-19T16:17:27.792Z,55.38
2018-07-19T16:19:55.511Z,54.71
2018-07-19T16:22:23.569Z,55.48
2018-07-19T16:24:51.305Z,55.28
2018-07-19T16:27:19.045Z,55.28
2018-07-19T16:29:46.746Z,54.99
2018-07-19T16:32:14.451Z,55.34
2018-07-19T16:34:42.135Z,55.88
2018-07-19T16:37:09.818Z,55.71
2018-07-19T16:39:37.528Z,56.43
2018-07-19T16:42:05.234Z,56.21
2018-07-19T16:44:32.890Z,55.88
2018-07-19T16:47:00.682Z,57.34
2018-07-19T16:49:28.377Z,56.30
2018-07-19T16:51:56.132Z,56.49
2018-07-19T16:54:23.810Z,57.04
2018-07-19T16:56:51.525Z,56.64
2018-07-19T16:59:19.300Z,56.89
2018-07-19T17:01:46.997Z,57.92
2018-07-19T17:04:14.698Z,57.40
2018-07-19T17:06:42.404Z,58.15
2018-07-19T17:09:10.985Z,58.46
2018-07-19T17:11:45.384Z,57.78
2018-07-19T17:14:13.063Z,58.24
2018-07-19T17:16:40.731Z,58.32
2018-07-19T17:19:08.438Z,57.92
2018-07-19T17:21:36.139Z,58.32
2018-07-19T17:24:03.868Z,58.62
2018-07-19T17:26:31.661Z,58.85
2018-07-19T17:28:59.697Z,58.82
2018-07-19T17:31:27.374Z,59.47
2018-07-19T17:33:55.092Z,59.97
2018-07-19T17:36:22.744Z,60.91
2018-07-19T17:38:50.441Z,60.54
2018-07-19T17:41:18.186Z,60.02
2018-07-19T17:43:45.908Z,61.57
2018-07-19T17:46:13.600Z,61.36
2018-07-19T17:48:41.313Z,61.50
2018-07-19T17:51:09.037Z,62.30
2018-07-19T17:53:36.728Z,61.80
2018-07-19T17:56:04.447Z,61.25
2018-07-19T17:58:32.133Z,62.12
2018-07-19T18:00:59.881Z,61.28
2018-07-19T18:03:27.552Z,61.81
2018-07-19T18:05:55.258Z,61.30
2018-07-19T18:08:22.956Z,61.01
2018-07-19T18:10:50.920Z,61.82
2018-07-19T18:13:18.606Z,62.17
2018-07-19T18:15:46.285Z,62.29
2018-07-19T18:18:13.956Z,62.43
2018-07-19T18:20:41.674Z,62.33
2018-07-19T18:23:09.460Z,63.06
2018-07-19T18:25:37.154Z,63.19
2018-07-19T18:28:05.164Z,63.16
2018-07-19T18:30:32.848Z,63.56
2018-07-19T18:33:00.549Z,63.29
2018-07-19T18:35:28.229Z,63.15
2018-07-19T18:37:55.956Z,62.88
2018-07-19T18:40:23.618Z,62.96
2018-07-19T18:42:51.299Z,63.37
2018-07-19T18:45:18.994Z,62.99
2018-07-19T18:47:46.705Z,62.87
2018-07-19T18:50:14.510Z,62.80
2018-07-19T18:52:42.167Z,63.37
2018-07-19T18:55:09.850Z,63.45
2018-07-19T18:57:37.525Z,63.23
2018-07-19T19:00:05.565Z,63.20
2018-07-19T19:02:33.297Z,63.36
2018-07-19T19:05:00.973Z,63.53
2018-07-19T19:07:28.690Z,63.55
2018-07-19T19:09:56.396Z,63.55
2018-07-19T19:12:24.105Z,63.39
2018-07-19T19:14:51.816Z,63.51
2018-07-19T19:17:19.520Z,63.68
2018-07-19T19:19:47.189Z,63.35
2018-07-19T19:22:14.860Z,63.38
2018-07-19T19:24:42.566Z,63.77
2018-07-19T19:27:10.265Z,64.01
2018-07-19T19:29:37.981Z,63.31
2018-07-19T19:32:05.751Z,63.64
2018-07-19T19:34:33.438Z,62.94
2018-07-19T19:37:01.168Z,63.05
2018-07-19T19:39:28.865Z,63.22
2018-07-19T19:41:56.577Z,63.25
2018-07-19T19:44:24.318Z,63.74
2018-07-19T19:46:51.981Z,63.89
2018-07-19T19:49:19.724Z,63.82
2018-07-19T19:51:47.458Z,63.29
2018-07-19T19:54:15.196Z,63.07
2018-07-19T19:56:42.882Z,63.06
2018-07-19T19:59:10.561Z,62.97
2018-07-19T20:01:38.288Z,62.92
2018-07-19T20:04:06.258Z,63.04
2018-07-19T20:06:33.961Z,63.15
2018-07-19T20:09:01.637Z,62.63
2018-07-19T20:11:29.375Z,62.63
2018-07-19T20:13:57.053Z,63.06
2018-07-19T20:16:24.726Z,62.61
2018-07-19T20:18:52.392Z,62.11
2018-07-19T20:21:20.114Z,62.36
2018-07-19T20:23:47.798Z,62.84
2018-07-19T20:26:15.465Z,62.74
2018-07-19T20:28:43.206Z,62.80
2018-07-19T20:31:11.069Z,62.69
2018-07-19T20:33:38.722Z,62.64
2018-07-19T20:36:06.383Z,62.48
2018-07-19T20:38:34.091Z,62.63
2018-07-19T20:41:01.804Z,62.59
2018-07-19T20:43:29.500Z,62.38
2018-07-19T20:45:57.175Z,62.43
2018-07-19T20:48:24.905Z,62.70
2018-07-19T20:50:52.610Z,62.55
2018-07-19T20:53:20.373Z,62.28
2018-07-19T20:55:48.045Z,62.33
2018-07-19T20:58:15.703Z,62.30
2018-07-19T21:00:43.356Z,62.41
2018-07-19T21:03:11.057Z,62.53
2018-07-19T21:05:38.728Z,62.68
2018-07-19T21:08:06.388Z,62.95
2018-07-19T21:10:34.073Z,63.00
2018-07-19T21:13:01.739Z,62.98
2018-07-19T21:15:29.429Z,62.91
2018-07-19T21:17:57.105Z,63.49
2018-07-19T21:20:24.755Z,64.14
2018-07-19T21:22:52.429Z,63.78
2018-07-19T21:25:20.102Z,63.64
2018-07-19T21:27:47.760Z,63.85
2018-07-19T21:30:15.444Z,63.78
2018-07-19T21:32:43.130Z,63.84
2018-07-19T21:35:10.826Z,64.05
2018-07-19T21:37:38.507Z,63.96
2018-07-19T21:40:06.242Z,64.12
2018-07-19T21:42:33.915Z,64.18
2018-07-19T21:45:01.568Z,64.33
2018-07-19T21:47:29.240Z,64.40
2018-07-19T21:49:56.903Z,64.35
2018-07-19T21:52:24.557Z,64.37
2018-07-19T21:54:52.256Z,64.51
2018-07-19T21:57:19.919Z,64.97
2018-07-19T21:59:47.601Z,64.99
2018-07-19T22:02:15.264Z,64.85
2018-07-19T22:04:43.064Z,64.79
2018-07-19T22:07:10.858Z,65.02
2018-07-19T22:09:38.572Z,65.23
2018-07-19T22:12:06.276Z,64.93
2018-07-19T22:14:33.965Z,65.30
2018-07-19T22:17:01.634Z,65.03
2018-07-19T22:19:29.337Z,65.35
2018-07-19T22:21:57.007Z,65.25
2018-07-19T22:24:24.670Z,65.03
2018-07-19T22:26:52.358Z,64.88
2018-07-19T22:29:20.134Z,65.70
2018-07-19T22:31:47.812Z,66.30
2018-07-19T22:34:15.498Z,66.40
2018-07-19T22:36:43.161Z,66.44
2018-07-19T22:39:11.625Z,66.25
2018-07-19T22:41:39.379Z,65.98
2018-07-19T22:44:07.109Z,66.04
2018-07-19T22:46:34.842Z,66.16
2018-07-19T22:49:02.511Z,66.11
2018-07-19T22:51:30.183Z,66.30
2018-07-19T22:53:57.871Z,66.59
2018-07-19T22:56:25.551Z,67.61
2018-07-19T22:58:53.281Z,67.05
2018-07-19T23:01:20.961Z,66.49
2018-07-19T23:03:48.729Z,66.82
2018-07-19T23:06:16.515Z,66.12
2018-07-19T23:08:44.185Z,66.24
2018-07-19T23:11:11.855Z,66.14
2018-07-19T23:13:39.526Z,65.89
2018-07-19T23:16:07.741Z,65.97
2018-07-19T23:18:35.412Z,65.65
2018-07-19T23:21:03.097Z,66.06
2018-07-19T23:23:30.761Z,65.87
2018-07-19T23:25:58.447Z,66.30
2018-07-19T23:28:26.173Z,66.09
2018-07-19T23:30:53.971Z,66.36
2018-07-19T23:33:21.723Z,67.03
2018-07-19T23:35:57.660Z,67.71
2018-07-19T23:38:29.481Z,68.53
2018-07-19T23:40:58.429Z,67.62
2018-07-19T23:43:33.881Z,67.47
2018-07-19T23:46:06.321Z,69.16
2018-07-19T23:48:34.063Z,67.87
2018-07-19T23:51:01.733Z,68.87
2018-07-19T23:53:29.398Z,68.84
2018-07-19T23:55:57.054Z,68.54
2018-07-19T23:58:24.733Z,68.84
